sensor_id;sensor_type;location;lat;lon;timestamp;P1;durP1;ratioP1;P2;durP2;ratioP2
16310;SDS011;8264;48.510;8.872;2023-06-24T00:00:15;8.23;;;5.27;;
16310;SDS011;8264;48.510;8.872;2023-06-24T00:02:44;8.20;;;5.97;;
16310;SDS011;8264;48.510;8.872;2023-06-24T00:05:10;7.97;;;4.80;;
16310;SDS011;8264;48.510;8.872;2023-06-24T00:07:37;6.87;;;5.07;;
16310;SDS011;8264;48.510;8.872;2023-06-24T00:10:09;6.90;;;5.33;;
16310;SDS011;8264;48.510;8.872;2023-06-24T00:12:37;6.57;;;5.83;;
16310;SDS011;8264;48.510;8.872;2023-06-24T00:15:04;5.70;;;5.07;;
16310;SDS011;8264;48.510;8.872;2023-06-24T00:17:33;8.20;;;5.60;;
16310;SDS011;8264;48.510;8.872;2023-06-24T00:19:59;8.03;;;5.63;;
16310;SDS011;8264;48.510;8.872;2023-06-24T00:22:26;8.40;;;5.73;;
16310;SDS011;8264;48.510;8.872;2023-06-24T00:24:52;5.53;;;4.83;;
16310;SDS011;8264;48.510;8.872;2023-06-24T00:27:19;7.23;;;5.57;;
16310;SDS011;8264;48.510;8.872;2023-06-24T00:29:45;6.17;;;5.57;;
16310;SDS011;8264;48.510;8.872;2023-06-24T00:32:12;7.77;;;5.57;;
16310;SDS011;8264;48.510;8.872;2023-06-24T00:34:40;5.53;;;4.90;;
16310;SDS011;8264;48.510;8.872;2023-06-24T00:37:08;5.47;;;4.93;;
16310;SDS011;8264;48.510;8.872;2023-06-24T00:39:35;6.20;;;5.27;;
16310;SDS011;8264;48.510;8.872;2023-06-24T00:42:01;6.10;;;5.53;;
16310;SDS011;8264;48.510;8.872;2023-06-24T00:44:28;5.40;;;4.90;;
16310;SDS011;8264;48.510;8.872;2023-06-24T00:46:54;6.47;;;5.43;;
16310;SDS011;8264;48.510;8.872;2023-06-24T00:49:21;6.73;;;5.57;;
16310;SDS011;8264;48.510;8.872;2023-06-24T00:51:48;7.70;;;5.03;;
16310;SDS011;8264;48.510;8.872;2023-06-24T00:54:16;7.33;;;5.07;;
16310;SDS011;8264;48.510;8.872;2023-06-24T00:56:42;5.70;;;5.20;;
16310;SDS011;8264;48.510;8.872;2023-06-24T00:59:09;9.23;;;5.27;;
16310;SDS011;8264;48.510;8.872;2023-06-24T01:01:37;5.80;;;5.03;;
16310;SDS011;8264;48.510;8.872;2023-06-24T01:04:04;6.50;;;5.33;;
16310;SDS011;8264;48.510;8.872;2023-06-24T01:06:31;5.17;;;4.50;;
16310;SDS011;8264;48.510;8.872;2023-06-24T01:08:59;6.70;;;5.10;;
16310;SDS011;8264;48.510;8.872;2023-06-24T01:11:27;6.03;;;5.00;;
16310;SDS011;8264;48.510;8.872;2023-06-24T01:13:54;6.20;;;5.27;;
16310;SDS011;8264;48.510;8.872;2023-06-24T01:16:24;5.67;;;4.87;;
16310;SDS011;8264;48.510;8.872;2023-06-24T01:18:55;7.03;;;4.60;;
16310;SDS011;8264;48.510;8.872;2023-06-24T01:21:30;9.10;;;5.37;;
16310;SDS011;8264;48.510;8.872;2023-06-24T01:24:06;6.50;;;4.87;;
16310;SDS011;8264;48.510;8.872;2023-06-24T01:26:51;7.23;;;5.00;;
16310;SDS011;8264;48.510;8.872;2023-06-24T01:29:41;6.63;;;5.13;;
16310;SDS011;8264;48.510;8.872;2023-06-24T01:32:18;7.63;;;5.13;;
16310;SDS011;8264;48.510;8.872;2023-06-24T01:34:47;7.40;;;4.80;;
16310;SDS011;8264;48.510;8.872;2023-06-24T01:37:18;7.70;;;5.53;;
16310;SDS011;8264;48.510;8.872;2023-06-24T01:39:47;6.70;;;5.10;;
16310;SDS011;8264;48.510;8.872;2023-06-24T01:42:17;6.40;;;4.73;;
16310;SDS011;8264;48.510;8.872;2023-06-24T01:44:45;5.47;;;4.90;;
16310;SDS011;8264;48.510;8.872;2023-06-24T01:47:13;7.00;;;4.83;;
16310;SDS011;8264;48.510;8.872;2023-06-24T01:49:42;6.17;;;4.27;;
16310;SDS011;8264;48.510;8.872;2023-06-24T01:52:10;7.27;;;4.70;;
16310;SDS011;8264;48.510;8.872;2023-06-24T01:54:38;6.30;;;4.87;;
16310;SDS011;8264;48.510;8.872;2023-06-24T01:57:06;10.30;;;5.10;;
16310;SDS011;8264;48.510;8.872;2023-06-24T01:59:35;6.17;;;4.50;;
16310;SDS011;8264;48.510;8.872;2023-06-24T02:02:05;10.93;;;5.40;;
16310;SDS011;8264;48.510;8.872;2023-06-24T02:04:33;9.77;;;4.73;;
16310;SDS011;8264;48.510;8.872;2023-06-24T02:07:02;5.80;;;4.70;;
16310;SDS011;8264;48.510;8.872;2023-06-24T02:09:29;6.00;;;4.90;;
16310;SDS011;8264;48.510;8.872;2023-06-24T02:11:57;6.53;;;4.77;;
16310;SDS011;8264;48.510;8.872;2023-06-24T02:14:25;5.50;;;4.47;;
16310;SDS011;8264;48.510;8.872;2023-06-24T02:16:52;5.13;;;4.13;;
16310;SDS011;8264;48.510;8.872;2023-06-24T02:19:21;6.17;;;4.47;;
16310;SDS011;8264;48.510;8.872;2023-06-24T02:21:48;6.53;;;5.33;;
16310;SDS011;8264;48.510;8.872;2023-06-24T02:24:18;6.60;;;4.70;;
16310;SDS011;8264;48.510;8.872;2023-06-24T02:26:44;10.03;;;5.03;;
16310;SDS011;8264;48.510;8.872;2023-06-24T02:29:12;7.90;;;4.83;;
16310;SDS011;8264;48.510;8.872;2023-06-24T02:31:39;6.20;;;4.63;;
16310;SDS011;8264;48.510;8.872;2023-06-24T02:34:06;8.40;;;5.20;;
16310;SDS011;8264;48.510;8.872;2023-06-24T02:36:32;7.97;;;5.63;;
16310;SDS011;8264;48.510;8.872;2023-06-24T02:38:59;6.90;;;5.97;;
16310;SDS011;8264;48.510;8.872;2023-06-24T02:41:27;11.43;;;5.13;;
16310;SDS011;8264;48.510;8.872;2023-06-24T02:43:53;5.20;;;4.70;;
16310;SDS011;8264;48.510;8.872;2023-06-24T02:46:20;7.03;;;5.60;;
16310;SDS011;8264;48.510;8.872;2023-06-24T02:48:47;10.03;;;5.43;;
16310;SDS011;8264;48.510;8.872;2023-06-24T02:51:14;7.17;;;5.03;;
16310;SDS011;8264;48.510;8.872;2023-06-24T02:53:40;8.77;;;5.17;;
16310;SDS011;8264;48.510;8.872;2023-06-24T02:56:07;7.53;;;4.37;;
16310;SDS011;8264;48.510;8.872;2023-06-24T02:58:36;9.63;;;4.73;;
16310;SDS011;8264;48.510;8.872;2023-06-24T03:01:03;5.17;;;4.50;;
16310;SDS011;8264;48.510;8.872;2023-06-24T03:03:32;7.47;;;4.90;;
16310;SDS011;8264;48.510;8.872;2023-06-24T03:05:58;7.60;;;4.37;;
16310;SDS011;8264;48.510;8.872;2023-06-24T03:08:27;8.67;;;5.30;;
16310;SDS011;8264;48.510;8.872;2023-06-24T03:10:54;5.87;;;4.90;;
16310;SDS011;8264;48.510;8.872;2023-06-24T03:13:22;6.67;;;5.00;;
16310;SDS011;8264;48.510;8.872;2023-06-24T03:15:50;10.73;;;5.37;;
16310;SDS011;8264;48.510;8.872;2023-06-24T03:18:17;7.10;;;5.00;;
16310;SDS011;8264;48.510;8.872;2023-06-24T03:20:44;6.20;;;4.97;;
16310;SDS011;8264;48.510;8.872;2023-06-24T03:23:11;9.00;;;4.83;;
16310;SDS011;8264;48.510;8.872;2023-06-24T03:25:38;10.53;;;4.97;;
16310;SDS011;8264;48.510;8.872;2023-06-24T03:28:04;10.80;;;5.47;;
16310;SDS011;8264;48.510;8.872;2023-06-24T03:30:32;9.07;;;5.10;;
16310;SDS011;8264;48.510;8.872;2023-06-24T03:33:00;7.33;;;5.10;;
16310;SDS011;8264;48.510;8.872;2023-06-24T03:35:27;6.13;;;5.23;;
16310;SDS011;8264;48.510;8.872;2023-06-24T03:37:54;10.67;;;5.33;;
16310;SDS011;8264;48.510;8.872;2023-06-24T03:40:21;7.07;;;5.20;;
16310;SDS011;8264;48.510;8.872;2023-06-24T03:42:47;8.97;;;5.70;;
16310;SDS011;8264;48.510;8.872;2023-06-24T03:45:14;8.90;;;5.47;;
16310;SDS011;8264;48.510;8.872;2023-06-24T03:47:40;8.23;;;5.63;;
16310;SDS011;8264;48.510;8.872;2023-06-24T03:50:09;8.20;;;5.33;;
16310;SDS011;8264;48.510;8.872;2023-06-24T03:52:36;7.00;;;5.03;;
16310;SDS011;8264;48.510;8.872;2023-06-24T03:55:02;6.00;;;4.60;;
16310;SDS011;8264;48.510;8.872;2023-06-24T03:57:30;7.47;;;5.50;;
16310;SDS011;8264;48.510;8.872;2023-06-24T03:59:56;6.63;;;5.00;;
16310;SDS011;8264;48.510;8.872;2023-06-24T04:02:23;6.87;;;5.33;;
16310;SDS011;8264;48.510;8.872;2023-06-24T04:04:49;14.87;;;5.73;;
16310;SDS011;8264;48.510;8.872;2023-06-24T04:07:17;8.47;;;5.67;;
16310;SDS011;8264;48.510;8.872;2023-06-24T04:09:51;11.23;;;6.10;;
16310;SDS011;8264;48.510;8.872;2023-06-24T04:12:19;7.00;;;4.87;;
16310;SDS011;8264;48.510;8.872;2023-06-24T04:14:46;6.00;;;5.30;;
16310;SDS011;8264;48.510;8.872;2023-06-24T04:17:12;9.23;;;5.67;;
16310;SDS011;8264;48.510;8.872;2023-06-24T04:19:39;7.10;;;5.40;;
16310;SDS011;8264;48.510;8.872;2023-06-24T04:22:05;8.17;;;5.57;;
16310;SDS011;8264;48.510;8.872;2023-06-24T04:24:33;7.67;;;6.13;;
16310;SDS011;8264;48.510;8.872;2023-06-24T04:27:00;6.67;;;5.90;;
16310;SDS011;8264;48.510;8.872;2023-06-24T04:29:26;10.53;;;6.60;;
16310;SDS011;8264;48.510;8.872;2023-06-24T04:31:53;10.37;;;6.33;;
16310;SDS011;8264;48.510;8.872;2023-06-24T04:34:19;8.53;;;6.10;;
16310;SDS011;8264;48.510;8.872;2023-06-24T04:36:46;12.03;;;6.17;;
16310;SDS011;8264;48.510;8.872;2023-06-24T04:39:12;7.20;;;5.30;;
16310;SDS011;8264;48.510;8.872;2023-06-24T04:41:40;11.07;;;5.67;;
16310;SDS011;8264;48.510;8.872;2023-06-24T04:44:06;7.83;;;5.27;;
16310;SDS011;8264;48.510;8.872;2023-06-24T04:46:33;9.57;;;5.57;;
16310;SDS011;8264;48.510;8.872;2023-06-24T04:48:59;10.83;;;5.37;;
16310;SDS011;8264;48.510;8.872;2023-06-24T04:51:26;9.43;;;5.27;;
16310;SDS011;8264;48.510;8.872;2023-06-24T04:53:52;10.97;;;5.40;;
16310;SDS011;8264;48.510;8.872;2023-06-24T04:56:20;9.00;;;5.60;;
16310;SDS011;8264;48.510;8.872;2023-06-24T04:58:48;10.90;;;4.73;;
16310;SDS011;8264;48.510;8.872;2023-06-24T05:01:14;7.43;;;5.13;;
16310;SDS011;8264;48.510;8.872;2023-06-24T05:03:41;10.77;;;6.07;;
16310;SDS011;8264;48.510;8.872;2023-06-24T05:06:07;9.60;;;5.40;;
16310;SDS011;8264;48.510;8.872;2023-06-24T05:08:34;7.43;;;5.03;;
16310;SDS011;8264;48.510;8.872;2023-06-24T05:11:00;6.53;;;4.47;;
16310;SDS011;8264;48.510;8.872;2023-06-24T05:13:27;7.17;;;5.77;;
16310;SDS011;8264;48.510;8.872;2023-06-24T05:15:55;10.47;;;5.53;;
16310;SDS011;8264;48.510;8.872;2023-06-24T05:18:21;6.47;;;4.97;;
16310;SDS011;8264;48.510;8.872;2023-06-24T05:20:47;11.03;;;6.00;;
16310;SDS011;8264;48.510;8.872;2023-06-24T05:23:14;7.13;;;5.50;;
16310;SDS011;8264;48.510;8.872;2023-06-24T05:25:41;9.37;;;6.17;;
16310;SDS011;8264;48.510;8.872;2023-06-24T05:28:07;8.53;;;6.77;;
16310;SDS011;8264;48.510;8.872;2023-06-24T05:30:34;10.93;;;7.53;;
16310;SDS011;8264;48.510;8.872;2023-06-24T05:33:02;10.67;;;6.17;;
16310;SDS011;8264;48.510;8.872;2023-06-24T05:35:28;8.87;;;6.87;;
16310;SDS011;8264;48.510;8.872;2023-06-24T05:37:54;8.87;;;7.50;;
16310;SDS011;8264;48.510;8.872;2023-06-24T05:40:21;12.07;;;6.30;;
16310;SDS011;8264;48.510;8.872;2023-06-24T05:42:47;7.73;;;6.70;;
16310;SDS011;8264;48.510;8.872;2023-06-24T05:45:14;7.27;;;6.57;;
16310;SDS011;8264;48.510;8.872;2023-06-24T05:47:41;9.53;;;6.90;;
16310;SDS011;8264;48.510;8.872;2023-06-24T05:50:09;7.57;;;6.60;;
16310;SDS011;8264;48.510;8.872;2023-06-24T05:52:35;11.33;;;7.30;;
16310;SDS011;8264;48.510;8.872;2023-06-24T05:55:02;8.27;;;6.77;;
16310;SDS011;8264;48.510;8.872;2023-06-24T05:57:28;12.77;;;7.60;;
16310;SDS011;8264;48.510;8.872;2023-06-24T05:59:55;12.67;;;7.57;;
16310;SDS011;8264;48.510;8.872;2023-06-24T06:02:21;10.17;;;6.47;;
16310;SDS011;8264;48.510;8.872;2023-06-24T06:04:48;7.90;;;6.80;;
16310;SDS011;8264;48.510;8.872;2023-06-24T06:07:17;8.63;;;7.80;;
16310;SDS011;8264;48.510;8.872;2023-06-24T06:09:43;13.13;;;7.53;;
16310;SDS011;8264;48.510;8.872;2023-06-24T06:12:10;9.20;;;7.73;;
16310;SDS011;8264;48.510;8.872;2023-06-24T06:14:37;9.93;;;7.57;;
16310;SDS011;8264;48.510;8.872;2023-06-24T06:17:03;9.30;;;7.57;;
16310;SDS011;8264;48.510;8.872;2023-06-24T06:19:30;8.17;;;7.00;;
16310;SDS011;8264;48.510;8.872;2023-06-24T06:21:57;11.43;;;7.57;;
16310;SDS011;8264;48.510;8.872;2023-06-24T06:24:25;7.97;;;7.17;;
16310;SDS011;8264;48.510;8.872;2023-06-24T06:26:51;7.17;;;6.47;;
16310;SDS011;8264;48.510;8.872;2023-06-24T06:29:17;6.57;;;5.97;;
16310;SDS011;8264;48.510;8.872;2023-06-24T06:31:44;7.40;;;6.70;;
16310;SDS011;8264;48.510;8.872;2023-06-24T06:34:10;7.07;;;6.17;;
16310;SDS011;8264;48.510;8.872;2023-06-24T06:36:37;9.20;;;6.00;;
16310;SDS011;8264;48.510;8.872;2023-06-24T06:39:03;7.83;;;7.07;;
16310;SDS011;8264;48.510;8.872;2023-06-24T06:41:31;6.17;;;5.57;;
16310;SDS011;8264;48.510;8.872;2023-06-24T06:43:58;7.57;;;5.70;;
16310;SDS011;8264;48.510;8.872;2023-06-24T06:46:24;5.83;;;5.23;;
16310;SDS011;8264;48.510;8.872;2023-06-24T06:48:51;7.43;;;6.57;;
16310;SDS011;8264;48.510;8.872;2023-06-24T06:51:17;7.40;;;6.23;;
16310;SDS011;8264;48.510;8.872;2023-06-24T06:53:45;8.07;;;5.47;;
16310;SDS011;8264;48.510;8.872;2023-06-24T06:56:16;6.57;;;5.80;;
16310;SDS011;8264;48.510;8.872;2023-06-24T06:58:44;8.07;;;5.17;;
16310;SDS011;8264;48.510;8.872;2023-06-24T07:01:10;7.30;;;5.03;;
16310;SDS011;8264;48.510;8.872;2023-06-24T07:03:37;6.60;;;5.20;;
16310;SDS011;8264;48.510;8.872;2023-06-24T07:06:05;6.37;;;5.73;;
16310;SDS011;8264;48.510;8.872;2023-06-24T07:08:31;5.90;;;5.30;;
16310;SDS011;8264;48.510;8.872;2023-06-24T07:10:57;6.90;;;5.40;;
16310;SDS011;8264;48.510;8.872;2023-06-24T07:13:24;5.23;;;4.70;;
16310;SDS011;8264;48.510;8.872;2023-06-24T07:15:52;7.20;;;4.73;;
16310;SDS011;8264;48.510;8.872;2023-06-24T07:18:18;4.93;;;4.43;;
16310;SDS011;8264;48.510;8.872;2023-06-24T07:20:45;4.83;;;3.93;;
16310;SDS011;8264;48.510;8.872;2023-06-24T07:23:11;5.00;;;4.50;;
16310;SDS011;8264;48.510;8.872;2023-06-24T07:25:38;7.13;;;4.53;;
16310;SDS011;8264;48.510;8.872;2023-06-24T07:28:04;21.27;;;5.57;;
16310;SDS011;8264;48.510;8.872;2023-06-24T07:30:31;7.73;;;5.13;;
16310;SDS011;8264;48.510;8.872;2023-06-24T07:32:59;6.83;;;4.20;;
16310;SDS011;8264;48.510;8.872;2023-06-24T07:35:30;6.10;;;4.90;;
16310;SDS011;8264;48.510;8.872;2023-06-24T07:37:56;4.13;;;3.73;;
16310;SDS011;8264;48.510;8.872;2023-06-24T07:40:23;7.50;;;4.93;;
16310;SDS011;8264;48.510;8.872;2023-06-24T07:42:49;7.27;;;6.17;;
16310;SDS011;8264;48.510;8.872;2023-06-24T07:45:16;4.73;;;4.27;;
16310;SDS011;8264;48.510;8.872;2023-06-24T07:47:42;4.80;;;4.30;;
16310;SDS011;8264;48.510;8.872;2023-06-24T07:50:10;4.63;;;4.10;;
16310;SDS011;8264;48.510;8.872;2023-06-24T07:52:37;4.03;;;3.60;;
16310;SDS011;8264;48.510;8.872;2023-06-24T07:55:04;4.40;;;4.00;;
16310;SDS011;8264;48.510;8.872;2023-06-24T07:57:31;5.63;;;4.00;;
16310;SDS011;8264;48.510;8.872;2023-06-24T07:59:57;4.53;;;4.03;;
16310;SDS011;8264;48.510;8.872;2023-06-24T08:02:24;4.53;;;3.47;;
16310;SDS011;8264;48.510;8.872;2023-06-24T08:04:51;5.23;;;3.70;;
16310;SDS011;8264;48.510;8.872;2023-06-24T08:07:19;5.53;;;3.90;;
16310;SDS011;8264;48.510;8.872;2023-06-24T08:09:45;5.27;;;3.70;;
16310;SDS011;8264;48.510;8.872;2023-06-24T08:12:12;7.70;;;4.07;;
16310;SDS011;8264;48.510;8.872;2023-06-24T08:14:38;5.33;;;4.10;;
16310;SDS011;8264;48.510;8.872;2023-06-24T08:17:05;4.13;;;3.80;;
16310;SDS011;8264;48.510;8.872;2023-06-24T08:19:31;3.53;;;3.20;;
16310;SDS011;8264;48.510;8.872;2023-06-24T08:21:58;4.10;;;3.43;;
16310;SDS011;8264;48.510;8.872;2023-06-24T08:24:25;3.77;;;3.37;;
16310;SDS011;8264;48.510;8.872;2023-06-24T08:26:52;3.23;;;3.00;;
16310;SDS011;8264;48.510;8.872;2023-06-24T08:29:19;3.33;;;3.03;;
16310;SDS011;8264;48.510;8.872;2023-06-24T08:31:45;4.60;;;3.30;;
16310;SDS011;8264;48.510;8.872;2023-06-24T08:34:12;5.87;;;2.97;;
16310;SDS011;8264;48.510;8.872;2023-06-24T08:36:38;5.17;;;3.27;;
16310;SDS011;8264;48.510;8.872;2023-06-24T08:39:05;3.53;;;3.23;;
16310;SDS011;8264;48.510;8.872;2023-06-24T08:41:32;3.40;;;3.10;;
16310;SDS011;8264;48.510;8.872;2023-06-24T08:43:59;6.40;;;3.77;;
16310;SDS011;8264;48.510;8.872;2023-06-24T08:46:25;5.60;;;3.70;;
16310;SDS011;8264;48.510;8.872;2023-06-24T08:48:54;8.60;;;4.30;;
16310;SDS011;8264;48.510;8.872;2023-06-24T08:51:25;4.30;;;3.90;;
16310;SDS011;8264;48.510;8.872;2023-06-24T08:53:54;4.63;;;3.27;;
16310;SDS011;8264;48.510;8.872;2023-06-24T08:56:20;7.17;;;3.33;;
16310;SDS011;8264;48.510;8.872;2023-06-24T08:58:48;3.97;;;3.50;;
16310;SDS011;8264;48.510;8.872;2023-06-24T09:01:15;5.00;;;3.70;;
16310;SDS011;8264;48.510;8.872;2023-06-24T09:03:41;6.77;;;3.03;;
16310;SDS011;8264;48.510;8.872;2023-06-24T09:06:08;3.40;;;3.10;;
16310;SDS011;8264;48.510;8.872;2023-06-24T09:08:34;3.63;;;3.07;;
16310;SDS011;8264;48.510;8.872;2023-06-24T09:11:04;3.47;;;3.10;;
16310;SDS011;8264;48.510;8.872;2023-06-24T09:13:33;3.57;;;3.27;;
16310;SDS011;8264;48.510;8.872;2023-06-24T09:16:09;5.03;;;3.30;;
16310;SDS011;8264;48.510;8.872;2023-06-24T09:18:37;3.70;;;3.10;;
16310;SDS011;8264;48.510;8.872;2023-06-24T09:21:04;4.77;;;3.33;;
16310;SDS011;8264;48.510;8.872;2023-06-24T09:23:32;3.90;;;2.83;;
16310;SDS011;8264;48.510;8.872;2023-06-24T09:26:01;3.63;;;3.20;;
16310;SDS011;8264;48.510;8.872;2023-06-24T09:28:28;3.30;;;3.00;;
16310;SDS011;8264;48.510;8.872;2023-06-24T09:31:04;3.47;;;3.17;;
16310;SDS011;8264;48.510;8.872;2023-06-24T09:33:33;2.90;;;2.70;;
16310;SDS011;8264;48.510;8.872;2023-06-24T09:36:01;4.60;;;2.90;;
16310;SDS011;8264;48.510;8.872;2023-06-24T09:38:32;4.63;;;2.83;;
16310;SDS011;8264;48.510;8.872;2023-06-24T09:41:01;3.70;;;2.50;;
16310;SDS011;8264;48.510;8.872;2023-06-24T09:43:28;4.87;;;2.93;;
16310;SDS011;8264;48.510;8.872;2023-06-24T09:45:55;3.53;;;3.00;;
16310;SDS011;8264;48.510;8.872;2023-06-24T09:48:22;3.50;;;3.17;;
16310;SDS011;8264;48.510;8.872;2023-06-24T09:50:49;3.20;;;2.90;;
16310;SDS011;8264;48.510;8.872;2023-06-24T09:53:17;3.97;;;2.57;;
16310;SDS011;8264;48.510;8.872;2023-06-24T09:55:44;4.47;;;2.70;;
16310;SDS011;8264;48.510;8.872;2023-06-24T09:58:12;3.03;;;2.60;;
16310;SDS011;8264;48.510;8.872;2023-06-24T10:00:39;3.20;;;2.73;;
16310;SDS011;8264;48.510;8.872;2023-06-24T10:03:06;2.80;;;2.50;;
16310;SDS011;8264;48.510;8.872;2023-06-24T10:05:33;2.50;;;2.30;;
16310;SDS011;8264;48.510;8.872;2023-06-24T10:08:00;3.03;;;2.73;;
16310;SDS011;8264;48.510;8.872;2023-06-24T10:10:28;2.63;;;2.43;;
16310;SDS011;8264;48.510;8.872;2023-06-24T10:12:55;2.90;;;2.63;;
16310;SDS011;8264;48.510;8.872;2023-06-24T10:15:21;5.67;;;2.90;;
16310;SDS011;8264;48.510;8.872;2023-06-24T10:17:48;3.80;;;2.70;;
16310;SDS011;8264;48.510;8.872;2023-06-24T10:20:23;2.63;;;2.43;;
16310;SDS011;8264;48.510;8.872;2023-06-24T10:22:50;2.87;;;2.67;;
16310;SDS011;8264;48.510;8.872;2023-06-24T10:25:18;3.30;;;2.57;;
16310;SDS011;8264;48.510;8.872;2023-06-24T10:27:46;4.27;;;2.50;;
16310;SDS011;8264;48.510;8.872;2023-06-24T10:30:17;2.70;;;2.40;;
16310;SDS011;8264;48.510;8.872;2023-06-24T10:32:45;2.67;;;2.47;;
16310;SDS011;8264;48.510;8.872;2023-06-24T10:35:22;4.77;;;2.70;;
16310;SDS011;8264;48.510;8.872;2023-06-24T10:37:55;3.50;;;2.50;;
16310;SDS011;8264;48.510;8.872;2023-06-24T10:45:55;5.67;;;2.73;;
16310;SDS011;8264;48.510;8.872;2023-06-24T10:48:22;2.43;;;2.20;;
16310;SDS011;8264;48.510;8.872;2023-06-24T10:50:49;4.63;;;2.50;;
16310;SDS011;8264;48.510;8.872;2023-06-24T10:53:15;2.67;;;2.40;;
16310;SDS011;8264;48.510;8.872;2023-06-24T10:55:44;4.27;;;2.63;;
16310;SDS011;8264;48.510;8.872;2023-06-24T10:58:12;3.03;;;2.63;;
16310;SDS011;8264;48.510;8.872;2023-06-24T11:00:40;3.47;;;2.77;;
16310;SDS011;8264;48.510;8.872;2023-06-24T11:03:10;2.83;;;2.53;;
16310;SDS011;8264;48.510;8.872;2023-06-24T11:05:38;3.70;;;2.80;;
16310;SDS011;8264;48.510;8.872;2023-06-24T11:08:05;5.90;;;3.10;;
16310;SDS011;8264;48.510;8.872;2023-06-24T11:10:41;7.17;;;2.80;;
16310;SDS011;8264;48.510;8.872;2023-06-24T11:13:10;4.70;;;2.70;;
16310;SDS011;8264;48.510;8.872;2023-06-24T11:15:37;2.67;;;2.30;;
16310;SDS011;8264;48.510;8.872;2023-06-24T11:18:04;8.13;;;3.10;;
16310;SDS011;8264;48.510;8.872;2023-06-24T11:20:32;3.40;;;2.53;;
16310;SDS011;8264;48.510;8.872;2023-06-24T11:22:58;3.93;;;2.57;;
16310;SDS011;8264;48.510;8.872;2023-06-24T11:25:25;3.77;;;2.60;;
16310;SDS011;8264;48.510;8.872;2023-06-24T11:27:51;3.27;;;2.50;;
16310;SDS011;8264;48.510;8.872;2023-06-24T11:30:19;6.07;;;2.87;;
16310;SDS011;8264;48.510;8.872;2023-06-24T11:32:46;3.23;;;2.60;;
16310;SDS011;8264;48.510;8.872;2023-06-24T11:35:15;2.53;;;2.30;;
16310;SDS011;8264;48.510;8.872;2023-06-24T11:37:42;2.60;;;2.40;;
16310;SDS011;8264;48.510;8.872;2023-06-24T11:40:09;2.60;;;2.40;;
16310;SDS011;8264;48.510;8.872;2023-06-24T11:42:36;2.83;;;2.40;;
16310;SDS011;8264;48.510;8.872;2023-06-24T11:45:05;2.87;;;2.47;;
16310;SDS011;8264;48.510;8.872;2023-06-24T11:47:34;3.30;;;2.80;;
16310;SDS011;8264;48.510;8.872;2023-06-24T11:50:01;2.63;;;2.23;;
16310;SDS011;8264;48.510;8.872;2023-06-24T11:52:32;2.60;;;2.40;;
16310;SDS011;8264;48.510;8.872;2023-06-24T11:55:04;2.70;;;2.50;;
16310;SDS011;8264;48.510;8.872;2023-06-24T11:57:49;2.67;;;2.47;;
16310;SDS011;8264;48.510;8.872;2023-06-24T12:00:16;2.53;;;2.23;;
16310;SDS011;8264;48.510;8.872;2023-06-24T12:02:45;3.43;;;2.53;;
16310;SDS011;8264;48.510;8.872;2023-06-24T12:05:12;3.07;;;2.70;;
16310;SDS011;8264;48.510;8.872;2023-06-24T12:07:38;2.97;;;2.43;;
16310;SDS011;8264;48.510;8.872;2023-06-24T12:10:05;2.73;;;2.33;;
16310;SDS011;8264;48.510;8.872;2023-06-24T12:12:34;3.00;;;2.10;;
16310;SDS011;8264;48.510;8.872;2023-06-24T12:15:00;2.90;;;2.60;;
16310;SDS011;8264;48.510;8.872;2023-06-24T12:17:27;3.73;;;2.23;;
16310;SDS011;8264;48.510;8.872;2023-06-24T12:19:55;3.83;;;2.20;;
16310;SDS011;8264;48.510;8.872;2023-06-24T12:22:21;2.70;;;2.50;;
16310;SDS011;8264;48.510;8.872;2023-06-24T12:24:47;3.57;;;2.67;;
16310;SDS011;8264;48.510;8.872;2023-06-24T12:27:14;3.13;;;2.20;;
16310;SDS011;8264;48.510;8.872;2023-06-24T12:29:40;2.23;;;2.03;;
16310;SDS011;8264;48.510;8.872;2023-06-24T12:32:07;3.00;;;2.50;;
16310;SDS011;8264;48.510;8.872;2023-06-24T12:34:34;2.60;;;2.40;;
16310;SDS011;8264;48.510;8.872;2023-06-24T12:37:01;2.30;;;2.10;;
16310;SDS011;8264;48.510;8.872;2023-06-24T12:39:28;5.80;;;2.70;;
16310;SDS011;8264;48.510;8.872;2023-06-24T12:41:54;3.27;;;2.50;;
16310;SDS011;8264;48.510;8.872;2023-06-24T12:44:21;2.27;;;2.03;;
16310;SDS011;8264;48.510;8.872;2023-06-24T12:46:47;3.33;;;2.40;;
16310;SDS011;8264;48.510;8.872;2023-06-24T12:49:14;3.23;;;2.40;;
16310;SDS011;8264;48.510;8.872;2023-06-24T12:51:41;3.30;;;2.50;;
16310;SDS011;8264;48.510;8.872;2023-06-24T12:54:09;2.50;;;2.30;;
16310;SDS011;8264;48.510;8.872;2023-06-24T12:56:35;2.97;;;2.07;;
16310;SDS011;8264;48.510;8.872;2023-06-24T12:59:01;2.40;;;2.20;;
16310;SDS011;8264;48.510;8.872;2023-06-24T13:01:28;2.40;;;2.20;;
16310;SDS011;8264;48.510;8.872;2023-06-24T13:03:55;2.30;;;2.00;;
16310;SDS011;8264;48.510;8.872;2023-06-24T13:06:22;2.67;;;2.47;;
16310;SDS011;8264;48.510;8.872;2023-06-24T13:08:48;3.20;;;2.53;;
16310;SDS011;8264;48.510;8.872;2023-06-24T13:11:16;3.10;;;2.20;;
16310;SDS011;8264;48.510;8.872;2023-06-24T13:13:42;2.67;;;2.23;;
16310;SDS011;8264;48.510;8.872;2023-06-24T13:16:09;3.10;;;2.50;;
16310;SDS011;8264;48.510;8.872;2023-06-24T13:18:35;2.63;;;2.20;;
16310;SDS011;8264;48.510;8.872;2023-06-24T13:21:02;2.53;;;2.33;;
16310;SDS011;8264;48.510;8.872;2023-06-24T13:23:28;2.67;;;2.47;;
16310;SDS011;8264;48.510;8.872;2023-06-24T13:25:55;2.50;;;2.30;;
16310;SDS011;8264;48.510;8.872;2023-06-24T13:28:23;2.73;;;2.20;;
16310;SDS011;8264;48.510;8.872;2023-06-24T13:30:50;2.50;;;2.30;;
16310;SDS011;8264;48.510;8.872;2023-06-24T13:33:19;2.73;;;2.50;;
16310;SDS011;8264;48.510;8.872;2023-06-24T13:35:45;2.30;;;2.03;;
16310;SDS011;8264;48.510;8.872;2023-06-24T13:38:14;2.70;;;2.20;;
16310;SDS011;8264;48.510;8.872;2023-06-24T13:40:40;2.70;;;2.50;;
16310;SDS011;8264;48.510;8.872;2023-06-24T13:43:07;4.17;;;2.60;;
16310;SDS011;8264;48.510;8.872;2023-06-24T13:45:35;2.63;;;2.43;;
16310;SDS011;8264;48.510;8.872;2023-06-24T13:48:01;2.63;;;2.43;;
16310;SDS011;8264;48.510;8.872;2023-06-24T13:50:28;2.53;;;2.33;;
16310;SDS011;8264;48.510;8.872;2023-06-24T13:52:55;2.60;;;2.40;;
16310;SDS011;8264;48.510;8.872;2023-06-24T13:55:21;2.80;;;2.57;;
16310;SDS011;8264;48.510;8.872;2023-06-24T13:57:48;3.53;;;2.20;;
16310;SDS011;8264;48.510;8.872;2023-06-24T14:00:15;3.13;;;2.47;;
16310;SDS011;8264;48.510;8.872;2023-06-24T14:02:43;2.80;;;2.60;;
16310;SDS011;8264;48.510;8.872;2023-06-24T14:05:09;2.70;;;2.50;;
16310;SDS011;8264;48.510;8.872;2023-06-24T14:07:36;3.53;;;2.70;;
16310;SDS011;8264;48.510;8.872;2023-06-24T14:10:02;2.90;;;2.70;;
16310;SDS011;8264;48.510;8.872;2023-06-24T14:12:29;2.33;;;2.13;;
16310;SDS011;8264;48.510;8.872;2023-06-24T14:14:56;2.43;;;2.23;;
16310;SDS011;8264;48.510;8.872;2023-06-24T14:17:23;3.40;;;2.30;;
16310;SDS011;8264;48.510;8.872;2023-06-24T14:19:51;3.83;;;2.10;;
16310;SDS011;8264;48.510;8.872;2023-06-24T14:22:18;2.30;;;2.10;;
16310;SDS011;8264;48.510;8.872;2023-06-24T14:24:44;3.40;;;2.13;;
16310;SDS011;8264;48.510;8.872;2023-06-24T14:27:11;2.43;;;2.17;;
16310;SDS011;8264;48.510;8.872;2023-06-24T14:29:38;2.90;;;2.67;;
16310;SDS011;8264;48.510;8.872;2023-06-24T14:32:05;2.73;;;2.40;;
16310;SDS011;8264;48.510;8.872;2023-06-24T14:34:32;2.47;;;2.10;;
16310;SDS011;8264;48.510;8.872;2023-06-24T14:36:59;3.93;;;2.03;;
16310;SDS011;8264;48.510;8.872;2023-06-24T14:39:26;5.77;;;2.43;;
16310;SDS011;8264;48.510;8.872;2023-06-24T14:41:53;2.70;;;2.23;;
16310;SDS011;8264;48.510;8.872;2023-06-24T14:44:19;2.40;;;2.20;;
16310;SDS011;8264;48.510;8.872;2023-06-24T14:46:46;3.47;;;2.37;;
16310;SDS011;8264;48.510;8.872;2023-06-24T14:49:13;3.57;;;2.10;;
16310;SDS011;8264;48.510;8.872;2023-06-24T14:51:39;2.93;;;2.60;;
16310;SDS011;8264;48.510;8.872;2023-06-24T14:54:07;2.40;;;2.10;;
16310;SDS011;8264;48.510;8.872;2023-06-24T14:56:33;3.27;;;2.40;;
16310;SDS011;8264;48.510;8.872;2023-06-24T14:59:00;2.60;;;2.37;;
16310;SDS011;8264;48.510;8.872;2023-06-24T15:01:26;4.47;;;2.33;;
16310;SDS011;8264;48.510;8.872;2023-06-24T15:03:53;4.13;;;2.53;;
16310;SDS011;8264;48.510;8.872;2023-06-24T15:06:19;4.73;;;2.33;;